sensor_id;sensor_type;location;lat;lon;timestamp;P1;durP1;ratioP1;P2;durP2;ratioP2
24761;SDS011;12865;51.934;10.330;2022-12-07T00:01:17;27.63;;;18.85;;
24761;SDS011;12865;51.934;10.330;2022-12-07T00:04:08;27.10;;;19.45;;
24761;SDS011;12865;51.934;10.330;2022-12-07T00:06:57;24.50;;;18.15;;
24761;SDS011;12865;51.934;10.330;2022-12-07T00:09:43;25.80;;;19.08;;
24761;SDS011;12865;51.934;10.330;2022-12-07T00:12:28;25.92;;;18.10;;
24761;SDS011;12865;51.934;10.330;2022-12-07T00:15:14;27.38;;;18.58;;
24761;SDS011;12865;51.934;10.330;2022-12-07T00:18:00;26.85;;;18.27;;
24761;SDS011;12865;51.934;10.330;2022-12-07T00:20:45;27.08;;;17.58;;
24761;SDS011;12865;51.934;10.330;2022-12-07T00:23:31;29.63;;;17.48;;
24761;SDS011;12865;51.934;10.330;2022-12-07T00:26:19;28.48;;;17.50;;
24761;SDS011;12865;51.934;10.330;2022-12-07T00:29:07;29.48;;;17.95;;
24761;SDS011;12865;51.934;10.330;2022-12-07T00:31:58;30.35;;;19.10;;
24761;SDS011;12865;51.934;10.330;2022-12-07T00:34:44;31.33;;;18.70;;
24761;SDS011;12865;51.934;10.330;2022-12-07T00:37:29;30.80;;;18.40;;
24761;SDS011;12865;51.934;10.330;2022-12-07T00:40:15;32.42;;;19.40;;
24761;SDS011;12865;51.934;10.330;2022-12-07T00:43:01;33.10;;;19.10;;
24761;SDS011;12865;51.934;10.330;2022-12-07T00:45:46;33.53;;;19.85;;
24761;SDS011;12865;51.934;10.330;2022-12-07T00:48:32;33.40;;;20.70;;
24761;SDS011;12865;51.934;10.330;2022-12-07T00:51:19;32.42;;;19.25;;
24761;SDS011;12865;51.934;10.330;2022-12-07T00:54:07;32.67;;;20.63;;
24761;SDS011;12865;51.934;10.330;2022-12-07T00:56:52;28.85;;;19.30;;
24761;SDS011;12865;51.934;10.330;2022-12-07T00:59:38;27.10;;;18.65;;
24761;SDS011;12865;51.934;10.330;2022-12-07T01:02:24;29.80;;;19.38;;
24761;SDS011;12865;51.934;10.330;2022-12-07T01:05:10;26.00;;;18.30;;
24761;SDS011;12865;51.934;10.330;2022-12-07T01:07:55;27.77;;;18.63;;
24761;SDS011;12865;51.934;10.330;2022-12-07T01:10:41;28.65;;;18.58;;
24761;SDS011;12865;51.934;10.330;2022-12-07T01:13:27;24.80;;;16.65;;
24761;SDS011;12865;51.934;10.330;2022-12-07T01:16:14;23.60;;;16.33;;
24761;SDS011;12865;51.934;10.330;2022-12-07T01:19:01;24.58;;;17.98;;
24761;SDS011;12865;51.934;10.330;2022-12-07T01:21:49;24.97;;;18.10;;
24761;SDS011;12865;51.934;10.330;2022-12-07T01:24:35;21.75;;;16.20;;
24761;SDS011;12865;51.934;10.330;2022-12-07T01:27:21;22.60;;;16.50;;
24761;SDS011;12865;51.934;10.330;2022-12-07T01:30:07;24.15;;;16.95;;
24761;SDS011;12865;51.934;10.330;2022-12-07T01:32:53;22.30;;;15.88;;
24761;SDS011;12865;51.934;10.330;2022-12-07T01:35:39;20.55;;;15.15;;
24761;SDS011;12865;51.934;10.330;2022-12-07T01:38:25;21.48;;;16.27;;
24761;SDS011;12865;51.934;10.330;2022-12-07T01:41:11;19.08;;;14.95;;
24761;SDS011;12865;51.934;10.330;2022-12-07T01:44:11;19.55;;;15.30;;
24761;SDS011;12865;51.934;10.330;2022-12-07T01:47:01;20.52;;;15.60;;
24761;SDS011;12865;51.934;10.330;2022-12-07T01:49:48;19.67;;;16.13;;
24761;SDS011;12865;51.934;10.330;2022-12-07T01:52:34;20.70;;;16.27;;
24761;SDS011;12865;51.934;10.330;2022-12-07T01:55:22;20.88;;;16.02;;
24761;SDS011;12865;51.934;10.330;2022-12-07T01:58:10;18.52;;;15.63;;
24761;SDS011;12865;51.934;10.330;2022-12-07T02:00:57;21.65;;;16.52;;
24761;SDS011;12865;51.934;10.330;2022-12-07T02:03:43;23.38;;;16.73;;
24761;SDS011;12865;51.934;10.330;2022-12-07T02:06:31;20.70;;;16.20;;
24761;SDS011;12865;51.934;10.330;2022-12-07T02:09:17;22.42;;;16.85;;
24761;SDS011;12865;51.934;10.330;2022-12-07T02:12:03;22.50;;;17.08;;
24761;SDS011;12865;51.934;10.330;2022-12-07T02:14:50;22.33;;;16.63;;
24761;SDS011;12865;51.934;10.330;2022-12-07T02:17:39;20.25;;;15.40;;
24761;SDS011;12865;51.934;10.330;2022-12-07T02:30:02;18.33;;;15.48;;
24761;SDS011;12865;51.934;10.330;2022-12-07T02:33:07;18.52;;;14.13;;
24761;SDS011;12865;51.934;10.330;2022-12-07T02:36:34;18.38;;;14.35;;
24761;SDS011;12865;51.934;10.330;2022-12-07T02:39:17;17.02;;;13.95;;
24761;SDS011;12865;51.934;10.330;2022-12-07T02:42:23;15.82;;;13.35;;
24761;SDS011;12865;51.934;10.330;2022-12-07T02:45:14;16.42;;;13.68;;
24761;SDS011;12865;51.934;10.330;2022-12-07T02:48:04;17.38;;;14.02;;
24761;SDS011;12865;51.934;10.330;2022-12-07T02:50:52;15.15;;;12.57;;
24761;SDS011;12865;51.934;10.330;2022-12-07T02:53:42;16.05;;;13.80;;
24761;SDS011;12865;51.934;10.330;2022-12-07T02:56:39;16.95;;;13.57;;
24761;SDS011;12865;51.934;10.330;2022-12-07T03:11:33;12.52;;;10.40;;
24761;SDS011;12865;51.934;10.330;2022-12-07T03:14:31;12.20;;;10.38;;
24761;SDS011;12865;51.934;10.330;2022-12-07T03:17:24;14.35;;;10.45;;
24761;SDS011;12865;51.934;10.330;2022-12-07T03:20:14;11.70;;;9.70;;
24761;SDS011;12865;51.934;10.330;2022-12-07T03:23:04;14.38;;;10.93;;
24761;SDS011;12865;51.934;10.330;2022-12-07T03:25:56;14.40;;;10.48;;
24761;SDS011;12865;51.934;10.330;2022-12-07T03:28:46;15.20;;;12.10;;
24761;SDS011;12865;51.934;10.330;2022-12-07T03:31:41;15.40;;;11.70;;
24761;SDS011;12865;51.934;10.330;2022-12-07T03:34:33;16.70;;;12.93;;
24761;SDS011;12865;51.934;10.330;2022-12-07T03:37:35;18.15;;;14.18;;
24761;SDS011;12865;51.934;10.330;2022-12-07T03:40:35;18.98;;;14.38;;
24761;SDS011;12865;51.934;10.330;2022-12-07T03:43:29;20.63;;;14.35;;
24761;SDS011;12865;51.934;10.330;2022-12-07T03:46:28;17.70;;;14.27;;
24761;SDS011;12865;51.934;10.330;2022-12-07T03:52:35;23.05;;;16.65;;
24761;SDS011;12865;51.934;10.330;2022-12-07T03:55:28;21.45;;;15.98;;
24761;SDS011;12865;51.934;10.330;2022-12-07T03:58:17;21.13;;;15.98;;
24761;SDS011;12865;51.934;10.330;2022-12-07T04:03:51;20.42;;;15.32;;
24761;SDS011;12865;51.934;10.330;2022-12-07T04:06:37;22.45;;;15.55;;
24761;SDS011;12865;51.934;10.330;2022-12-07T04:09:22;20.90;;;16.23;;
24761;SDS011;12865;51.934;10.330;2022-12-07T04:12:08;24.63;;;15.88;;
24761;SDS011;12865;51.934;10.330;2022-12-07T04:14:54;21.95;;;16.40;;
24761;SDS011;12865;51.934;10.330;2022-12-07T04:17:39;24.42;;;16.20;;
24761;SDS011;12865;51.934;10.330;2022-12-07T04:20:25;24.60;;;16.92;;
24761;SDS011;12865;51.934;10.330;2022-12-07T04:23:11;22.48;;;16.27;;
24761;SDS011;12865;51.934;10.330;2022-12-07T04:25:57;26.17;;;16.52;;
24761;SDS011;12865;51.934;10.330;2022-12-07T04:28:42;21.58;;;15.93;;
24761;SDS011;12865;51.934;10.330;2022-12-07T04:31:28;24.88;;;16.17;;
24761;SDS011;12865;51.934;10.330;2022-12-07T04:34:14;22.13;;;15.82;;
24761;SDS011;12865;51.934;10.330;2022-12-07T04:37:00;23.02;;;16.13;;
24761;SDS011;12865;51.934;10.330;2022-12-07T04:39:45;24.60;;;15.90;;
24761;SDS011;12865;51.934;10.330;2022-12-07T04:42:31;20.15;;;15.32;;
24761;SDS011;12865;51.934;10.330;2022-12-07T04:45:17;21.45;;;15.20;;
24761;SDS011;12865;51.934;10.330;2022-12-07T04:48:02;22.15;;;14.63;;
24761;SDS011;12865;51.934;10.330;2022-12-07T04:50:48;25.73;;;16.38;;
24761;SDS011;12865;51.934;10.330;2022-12-07T04:53:37;22.20;;;14.85;;
24761;SDS011;12865;51.934;10.330;2022-12-07T04:56:23;23.08;;;14.95;;
24761;SDS011;12865;51.934;10.330;2022-12-07T04:59:12;21.48;;;13.65;;
24761;SDS011;12865;51.934;10.330;2022-12-07T05:02:00;20.20;;;13.93;;
24761;SDS011;12865;51.934;10.330;2022-12-07T05:04:45;18.55;;;13.85;;
24761;SDS011;12865;51.934;10.330;2022-12-07T05:07:31;23.95;;;13.63;;
24761;SDS011;12865;51.934;10.330;2022-12-07T05:10:17;21.45;;;14.10;;
24761;SDS011;12865;51.934;10.330;2022-12-07T05:13:03;22.20;;;13.85;;
24761;SDS011;12865;51.934;10.330;2022-12-07T05:15:49;22.77;;;13.95;;
24761;SDS011;12865;51.934;10.330;2022-12-07T05:18:34;22.25;;;14.65;;
24761;SDS011;12865;51.934;10.330;2022-12-07T05:21:20;22.88;;;15.40;;
24761;SDS011;12865;51.934;10.330;2022-12-07T05:24:06;24.98;;;14.60;;
24761;SDS011;12865;51.934;10.330;2022-12-07T05:26:53;23.95;;;14.98;;
24761;SDS011;12865;51.934;10.330;2022-12-07T05:29:39;23.33;;;15.18;;
24761;SDS011;12865;51.934;10.330;2022-12-07T05:32:24;22.83;;;14.40;;
24761;SDS011;12865;51.934;10.330;2022-12-07T05:35:10;31.27;;;16.73;;
24761;SDS011;12865;51.934;10.330;2022-12-07T05:37:56;23.65;;;15.70;;
24761;SDS011;12865;51.934;10.330;2022-12-07T05:40:42;24.58;;;15.10;;
24761;SDS011;12865;51.934;10.330;2022-12-07T05:43:28;28.02;;;14.63;;
24761;SDS011;12865;51.934;10.330;2022-12-07T05:46:14;22.52;;;15.30;;
24761;SDS011;12865;51.934;10.330;2022-12-07T05:49:00;21.27;;;14.65;;
24761;SDS011;12865;51.934;10.330;2022-12-07T05:51:47;25.17;;;14.93;;
24761;SDS011;12865;51.934;10.330;2022-12-07T05:54:33;20.08;;;14.75;;
24761;SDS011;12865;51.934;10.330;2022-12-07T05:57:19;21.73;;;13.77;;
24761;SDS011;12865;51.934;10.330;2022-12-07T06:00:05;21.27;;;13.23;;
24761;SDS011;12865;51.934;10.330;2022-12-07T06:02:51;27.08;;;14.43;;
24761;SDS011;12865;51.934;10.330;2022-12-07T06:05:36;22.45;;;14.57;;
24761;SDS011;12865;51.934;10.330;2022-12-07T06:08:22;25.08;;;13.57;;
24761;SDS011;12865;51.934;10.330;2022-12-07T06:11:08;22.73;;;13.35;;
24761;SDS011;12865;51.934;10.330;2022-12-07T06:14:12;22.25;;;12.65;;
24761;SDS011;12865;51.934;10.330;2022-12-07T06:16:58;21.52;;;13.73;;
24761;SDS011;12865;51.934;10.330;2022-12-07T06:19:44;20.15;;;13.38;;
24761;SDS011;12865;51.934;10.330;2022-12-07T06:22:29;21.00;;;13.43;;
24761;SDS011;12865;51.934;10.330;2022-12-07T06:25:15;23.45;;;13.00;;
24761;SDS011;12865;51.934;10.330;2022-12-07T06:28:01;23.23;;;14.02;;
24761;SDS011;12865;51.934;10.330;2022-12-07T06:30:47;23.92;;;13.50;;
24761;SDS011;12865;51.934;10.330;2022-12-07T06:33:32;20.80;;;13.13;;
24761;SDS011;12865;51.934;10.330;2022-12-07T06:36:18;23.30;;;13.60;;
24761;SDS011;12865;51.934;10.330;2022-12-07T06:39:04;17.95;;;12.05;;
24761;SDS011;12865;51.934;10.330;2022-12-07T06:41:51;27.23;;;14.10;;
24761;SDS011;12865;51.934;10.330;2022-12-07T06:44:37;23.58;;;12.45;;
24761;SDS011;12865;51.934;10.330;2022-12-07T06:47:23;19.60;;;12.30;;
24761;SDS011;12865;51.934;10.330;2022-12-07T06:50:08;18.48;;;11.55;;
24761;SDS011;12865;51.934;10.330;2022-12-07T06:52:54;19.92;;;11.43;;
24761;SDS011;12865;51.934;10.330;2022-12-07T06:55:40;19.95;;;11.75;;
24761;SDS011;12865;51.934;10.330;2022-12-07T06:58:26;14.77;;;11.15;;
24761;SDS011;12865;51.934;10.330;2022-12-07T07:01:13;21.15;;;11.20;;
24761;SDS011;12865;51.934;10.330;2022-12-07T07:04:01;18.02;;;10.38;;
24761;SDS011;12865;51.934;10.330;2022-12-07T07:06:47;18.90;;;10.43;;
24761;SDS011;12865;51.934;10.330;2022-12-07T07:09:33;16.48;;;10.85;;
24761;SDS011;12865;51.934;10.330;2022-12-07T07:12:19;21.10;;;10.15;;
24761;SDS011;12865;51.934;10.330;2022-12-07T07:15:04;17.02;;;9.80;;
24761;SDS011;12865;51.934;10.330;2022-12-07T07:17:50;16.20;;;10.27;;
24761;SDS011;12865;51.934;10.330;2022-12-07T07:20:36;10.63;;;8.18;;
24761;SDS011;12865;51.934;10.330;2022-12-07T07:23:22;21.45;;;9.90;;
24761;SDS011;12865;51.934;10.330;2022-12-07T07:26:08;13.02;;;8.15;;
24761;SDS011;12865;51.934;10.330;2022-12-07T07:28:54;14.60;;;9.18;;
24761;SDS011;12865;51.934;10.330;2022-12-07T07:31:39;13.90;;;8.80;;
24761;SDS011;12865;51.934;10.330;2022-12-07T07:34:25;13.50;;;8.02;;
24761;SDS011;12865;51.934;10.330;2022-12-07T07:37:11;9.85;;;6.90;;
24761;SDS011;12865;51.934;10.330;2022-12-07T07:39:57;11.10;;;8.10;;
24761;SDS011;12865;51.934;10.330;2022-12-07T07:42:43;12.07;;;8.27;;
24761;SDS011;12865;51.934;10.330;2022-12-07T07:45:29;9.55;;;7.15;;
24761;SDS011;12865;51.934;10.330;2022-12-07T07:48:15;10.00;;;6.75;;
24761;SDS011;12865;51.934;10.330;2022-12-07T07:51:00;9.48;;;6.63;;
24761;SDS011;12865;51.934;10.330;2022-12-07T07:53:51;7.68;;;5.70;;
24761;SDS011;12865;51.934;10.330;2022-12-07T07:56:36;10.23;;;6.70;;
24761;SDS011;12865;51.934;10.330;2022-12-07T07:59:22;8.77;;;5.53;;
24761;SDS011;12865;51.934;10.330;2022-12-07T08:02:18;13.82;;;6.88;;
24761;SDS011;12865;51.934;10.330;2022-12-07T08:05:05;9.88;;;6.25;;
24761;SDS011;12865;51.934;10.330;2022-12-07T08:07:51;10.25;;;5.97;;
24761;SDS011;12865;51.934;10.330;2022-12-07T08:10:36;10.52;;;6.32;;
24761;SDS011;12865;51.934;10.330;2022-12-07T08:13:22;8.65;;;6.97;;
24761;SDS011;12865;51.934;10.330;2022-12-07T08:16:09;8.00;;;6.40;;
24761;SDS011;12865;51.934;10.330;2022-12-07T08:18:56;8.05;;;6.25;;
24761;SDS011;12865;51.934;10.330;2022-12-07T08:21:42;11.18;;;5.60;;
24761;SDS011;12865;51.934;10.330;2022-12-07T08:24:27;10.35;;;5.90;;
24761;SDS011;12865;51.934;10.330;2022-12-07T08:27:13;8.00;;;6.57;;
24761;SDS011;12865;51.934;10.330;2022-12-07T08:29:59;7.80;;;6.85;;
24761;SDS011;12865;51.934;10.330;2022-12-07T08:32:45;9.05;;;6.80;;
24761;SDS011;12865;51.934;10.330;2022-12-07T08:35:32;9.38;;;6.43;;
24761;SDS011;12865;51.934;10.330;2022-12-07T08:38:19;9.60;;;6.78;;
24761;SDS011;12865;51.934;10.330;2022-12-07T08:41:05;10.27;;;6.00;;
24761;SDS011;12865;51.934;10.330;2022-12-07T08:43:52;10.18;;;5.25;;
24761;SDS011;12865;51.934;10.330;2022-12-07T08:46:56;9.27;;;6.55;;
24761;SDS011;12865;51.934;10.330;2022-12-07T08:49:47;9.30;;;6.05;;
24761;SDS011;12865;51.934;10.330;2022-12-07T08:52:36;9.25;;;5.80;;
24761;SDS011;12865;51.934;10.330;2022-12-07T08:55:23;8.90;;;5.35;;
24761;SDS011;12865;51.934;10.330;2022-12-07T08:58:09;14.05;;;6.93;;
24761;SDS011;12865;51.934;10.330;2022-12-07T09:00:54;11.48;;;5.65;;
24761;SDS011;12865;51.934;10.330;2022-12-07T09:03:40;7.18;;;5.15;;
24761;SDS011;12865;51.934;10.330;2022-12-07T09:06:26;7.70;;;5.00;;
24761;SDS011;12865;51.934;10.330;2022-12-07T09:09:13;7.95;;;5.20;;
24761;SDS011;12865;51.934;10.330;2022-12-07T09:11:59;11.02;;;6.13;;
24761;SDS011;12865;51.934;10.330;2022-12-07T09:14:45;8.55;;;5.75;;
24761;SDS011;12865;51.934;10.330;2022-12-07T09:17:33;6.80;;;5.25;;
24761;SDS011;12865;51.934;10.330;2022-12-07T09:20:21;10.18;;;5.75;;
24761;SDS011;12865;51.934;10.330;2022-12-07T09:23:07;11.82;;;5.53;;
24761;SDS011;12865;51.934;10.330;2022-12-07T09:25:53;9.20;;;5.45;;
24761;SDS011;12865;51.934;10.330;2022-12-07T09:28:39;9.07;;;6.35;;
24761;SDS011;12865;51.934;10.330;2022-12-07T09:31:25;12.90;;;6.20;;
24761;SDS011;12865;51.934;10.330;2022-12-07T09:34:11;9.10;;;5.90;;
24761;SDS011;12865;51.934;10.330;2022-12-07T09:36:57;9.40;;;6.00;;
24761;SDS011;12865;51.934;10.330;2022-12-07T09:39:43;8.57;;;5.18;;
24761;SDS011;12865;51.934;10.330;2022-12-07T09:42:38;8.23;;;5.38;;
24761;SDS011;12865;51.934;10.330;2022-12-07T09:45:32;6.95;;;4.90;;
24761;SDS011;12865;51.934;10.330;2022-12-07T09:48:22;7.20;;;5.18;;
24761;SDS011;12865;51.934;10.330;2022-12-07T09:51:20;5.97;;;5.10;;
24761;SDS011;12865;51.934;10.330;2022-12-07T09:54:07;11.10;;;5.88;;
24761;SDS011;12865;51.934;10.330;2022-12-07T09:56:58;5.45;;;4.93;;
24761;SDS011;12865;51.934;10.330;2022-12-07T09:59:44;9.63;;;4.70;;
24761;SDS011;12865;51.934;10.330;2022-12-07T10:02:37;10.38;;;5.38;;
24761;SDS011;12865;51.934;10.330;2022-12-07T10:05:28;8.25;;;5.38;;
24761;SDS011;12865;51.934;10.330;2022-12-07T10:08:19;11.38;;;7.05;;
24761;SDS011;12865;51.934;10.330;2022-12-07T10:11:04;8.65;;;7.10;;
24761;SDS011;12865;51.934;10.330;2022-12-07T10:13:55;9.20;;;6.30;;
24761;SDS011;12865;51.934;10.330;2022-12-07T10:16:57;6.78;;;5.47;;
24761;SDS011;12865;51.934;10.330;2022-12-07T10:19:43;10.73;;;5.90;;
24761;SDS011;12865;51.934;10.330;2022-12-07T10:22:28;15.05;;;6.30;;
24761;SDS011;12865;51.934;10.330;2022-12-07T10:25:18;10.60;;;5.60;;
24761;SDS011;12865;51.934;10.330;2022-12-07T10:30:59;8.18;;;4.20;;
24761;SDS011;12865;51.934;10.330;2022-12-07T10:33:52;7.00;;;4.70;;
24761;SDS011;12865;51.934;10.330;2022-12-07T10:36:40;10.68;;;4.07;;
24761;SDS011;12865;51.934;10.330;2022-12-07T10:39:26;7.13;;;3.88;;
24761;SDS011;12865;51.934;10.330;2022-12-07T10:42:16;6.22;;;4.25;;
24761;SDS011;12865;51.934;10.330;2022-12-07T10:48:23;5.20;;;4.57;;
24761;SDS011;12865;51.934;10.330;2022-12-07T10:54:25;6.40;;;4.70;;
24761;SDS011;12865;51.934;10.330;2022-12-07T11:00:22;5.38;;;4.13;;
24761;SDS011;12865;51.934;10.330;2022-12-07T11:10:08;6.93;;;4.00;;
24761;SDS011;12865;51.934;10.330;2022-12-07T11:19:43;6.15;;;4.28;;
24761;SDS011;12865;51.934;10.330;2022-12-07T11:28:49;6.70;;;4.07;;
24761;SDS011;12865;51.934;10.330;2022-12-07T11:37:49;3.22;;;2.88;;
24761;SDS011;12865;51.934;10.330;2022-12-07T11:40:42;5.38;;;3.22;;
24761;SDS011;12865;51.934;10.330;2022-12-07T11:43:32;4.15;;;3.17;;
24761;SDS011;12865;51.934;10.330;2022-12-07T11:46:20;3.53;;;3.23;;
24761;SDS011;12865;51.934;10.330;2022-12-07T11:52:33;3.30;;;2.85;;
24761;SDS011;12865;51.934;10.330;2022-12-07T12:07:22;7.82;;;3.85;;
24761;SDS011;12865;51.934;10.330;2022-12-07T12:13:44;4.97;;;3.60;;
24761;SDS011;12865;51.934;10.330;2022-12-07T12:20:04;5.55;;;3.88;;
24761;SDS011;12865;51.934;10.330;2022-12-07T12:23:04;7.78;;;3.90;;
24761;SDS011;12865;51.934;10.330;2022-12-07T12:25:58;7.95;;;3.75;;
24761;SDS011;12865;51.934;10.330;2022-12-07T12:28:56;7.30;;;3.80;;
24761;SDS011;12865;51.934;10.330;2022-12-07T12:34:38;4.03;;;3.20;;
24761;SDS011;12865;51.934;10.330;2022-12-07T12:43:38;6.10;;;3.88;;
24761;SDS011;12865;51.934;10.330;2022-12-07T12:55:14;7.75;;;3.53;;
24761;SDS011;12865;51.934;10.330;2022-12-07T13:04:28;8.90;;;3.38;;
24761;SDS011;12865;51.934;10.330;2022-12-07T13:10:33;9.18;;;3.53;;
24761;SDS011;12865;51.934;10.330;2022-12-07T13:18:53;8.50;;;4.07;;
24761;SDS011;12865;51.934;10.330;2022-12-07T13:21:42;8.65;;;4.53;;
24761;SDS011;12865;51.934;10.330;2022-12-07T13:24:29;8.02;;;3.88;;
24761;SDS011;12865;51.934;10.330;2022-12-07T13:27:17;5.20;;;3.22;;
24761;SDS011;12865;51.934;10.330;2022-12-07T13:30:09;10.57;;;3.40;;
24761;SDS011;12865;51.934;10.330;2022-12-07T13:33:03;10.68;;;3.85;;
24761;SDS011;12865;51.934;10.330;2022-12-07T13:35:49;9.65;;;3.85;;
24761;SDS011;12865;51.934;10.330;2022-12-07T13:38:39;4.07;;;2.88;;
24761;SDS011;12865;51.934;10.330;2022-12-07T13:41:34;7.28;;;4.20;;
24761;SDS011;12865;51.934;10.330;2022-12-07T13:44:20;7.07;;;3.30;;
24761;SDS011;12865;51.934;10.330;2022-12-07T13:47:09;11.85;;;3.53;;
24761;SDS011;12865;51.934;10.330;2022-12-07T13:53:11;9.45;;;3.13;;
24761;SDS011;12865;51.934;10.330;2022-12-07T13:55:58;6.00;;;2.90;;
24761;SDS011;12865;51.934;10.330;2022-12-07T13:58:45;6.90;;;2.97;;
24761;SDS011;12865;51.934;10.330;2022-12-07T14:01:31;8.88;;;3.17;;
24761;SDS011;12865;51.934;10.330;2022-12-07T14:04:33;6.57;;;3.30;;
24761;SDS011;12865;51.934;10.330;2022-12-07T14:07:24;7.55;;;3.88;;
24761;SDS011;12865;51.934;10.330;2022-12-07T14:13:31;12.70;;;3.75;;
24761;SDS011;12865;51.934;10.330;2022-12-07T14:16:26;8.63;;;3.50;;
24761;SDS011;12865;51.934;10.330;2022-12-07T14:25:20;7.78;;;5.15;;
24761;SDS011;12865;51.934;10.330;2022-12-07T14:28:28;11.75;;;7.32;;
24761;SDS011;12865;51.934;10.330;2022-12-07T14:31:17;7.70;;;4.30;;
24761;SDS011;12865;51.934;10.330;2022-12-07T14:34:11;6.15;;;3.90;;
24761;SDS011;12865;51.934;10.330;2022-12-07T14:36:57;8.15;;;3.70;;
24761;SDS011;12865;51.934;10.330;2022-12-07T14:39:43;6.93;;;3.92;;
24761;SDS011;12865;51.934;10.330;2022-12-07T14:42:29;6.00;;;3.55;;
24761;SDS011;12865;51.934;10.330;2022-12-07T14:45:17;5.47;;;3.50;;
24761;SDS011;12865;51.934;10.330;2022-12-07T14:48:05;8.00;;;3.17;;
24761;SDS011;12865;51.934;10.330;2022-12-07T14:50:52;6.28;;;3.47;;
24761;SDS011;12865;51.934;10.330;2022-12-07T14:53:39;7.13;;;3.30;;
24761;SDS011;12865;51.934;10.330;2022-12-07T14:56:29;5.40;;;3.38;;
24761;SDS011;12865;51.934;10.330;2022-12-07T14:59:15;8.77;;;4.05;;
24761;SDS011;12865;51.934;10.330;2022-12-07T15:02:02;9.60;;;3.90;;
24761;SDS011;12865;51.934;10.330;2022-12-07T15:04:48;5.85;;;3.55;;
24761;SDS011;12865;51.934;10.330;2022-12-07T15:07:33;9.07;;;3.83;;
24761;SDS011;12865;51.934;10.330;2022-12-07T15:10:23;6.13;;;3.40;;
24761;SDS011;12865;51.934;10.330;2022-12-07T15:13:17;6.90;;;3.13;;
24761;SDS011;12865;51.934;10.330;2022-12-07T15:16:22;7.15;;;4.05;;
24761;SDS011;12865;51.934;10.330;2022-12-07T15:19:17;7.72;;;3.42;;
24761;SDS011;12865;51.934;10.330;2022-12-07T15:22:05;13.70;;;4.47;;
24761;SDS011;12865;51.934;10.330;2022-12-07T15:24:50;5.65;;;4.20;;
24761;SDS011;12865;51.934;10.330;2022-12-07T15:27:36;5.72;;;3.42;;
24761;SDS011;12865;51.934;10.330;2022-12-07T15:30:22;5.80;;;3.20;;
24761;SDS011;12865;51.934;10.330;2022-12-07T15:33:08;8.40;;;3.95;;
24761;SDS011;12865;51.934;10.330;2022-12-07T15:35:54;8.70;;;4.05;;
24761;SDS011;12865;51.934;10.330;2022-12-07T15:38:41;7.30;;;3.92;;
24761;SDS011;12865;51.934;10.330;2022-12-07T15:41:26;11.50;;;4.60;;
24761;SDS011;12865;51.934;10.330;2022-12-07T15:44:12;5.30;;;3.95;;
24761;SDS011;12865;51.934;10.330;2022-12-07T15:47:17;8.30;;;3.75;;
24761;SDS011;12865;51.934;10.330;2022-12-07T15:50:04;8.20;;;4.45;;
24761;SDS011;12865;51.934;10.330;2022-12-07T15:52:52;10.52;;;4.68;;
24761;SDS011;12865;51.934;10.330;2022-12-07T15:55:38;14.07;;;5.38;;
24761;SDS011;12865;51.934;10.330;2022-12-07T15:58:25;6.95;;;4.35;;
24761;SDS011;12865;51.934;10.330;2022-12-07T16:01:11;13.00;;;5.53;;
24761;SDS011;12865;51.934;10.330;2022-12-07T16:04:04;9.32;;;4.65;;
24761;SDS011;12865;51.934;10.330;2022-12-07T16:06:50;10.10;;;4.82;;
24761;SDS011;12865;51.934;10.330;2022-12-07T16:09:36;7.82;;;4.60;;
24761;SDS011;12865;51.934;10.330;2022-12-07T16:12:22;6.28;;;4.25;;
24761;SDS011;12865;51.934;10.330;2022-12-07T16:15:08;10.40;;;4.65;;
24761;SDS011;12865;51.934;10.330;2022-12-07T16:17:54;13.40;;;4.60;;
24761;SDS011;12865;51.934;10.330;2022-12-07T16:20:40;10.55;;;5.57;;
24761;SDS011;12865;51.934;10.330;2022-12-07T16:23:27;9.60;;;4.47;;
24761;SDS011;12865;51.934;10.330;2022-12-07T16:26:14;8.68;;;5.03;;
24761;SDS011;12865;51.934;10.330;2022-12-07T16:29:02;11.57;;;4.43;;
24761;SDS011;12865;51.934;10.330;2022-12-07T16:31:48;13.18;;;5.47;;
24761;SDS011;12865;51.934;10.330;2022-12-07T16:34:34;13.57;;;5.30;;
24761;SDS011;12865;51.934;10.330;2022-12-07T16:37:20;8.82;;;4.72;;
24761;SDS011;12865;51.934;10.330;2022-12-07T16:40:06;13.75;;;4.93;;
24761;SDS011;12865;51.934;10.330;2022-12-07T16:42:52;8.85;;;5.43;;
24761;SDS011;12865;51.934;10.330;2022-12-07T16:45:38;8.73;;;5.18;;
24761;SDS011;12865;51.934;10.330;2022-12-07T16:48:23;7.70;;;5.32;;
24761;SDS011;12865;51.934;10.330;2022-12-07T16:51:11;9.07;;;5.20;;
24761;SDS011;12865;51.934;10.330;2022-12-07T16:53:59;8.27;;;5.40;;
24761;SDS011;12865;51.934;10.330;2022-12-07T16:56:44;8.50;;;5.72;;
24761;SDS011;12865;51.934;10.330;2022-12-07T16:59:30;11.75;;;6.53;;
24761;SDS011;12865;51.934;10.330;2022-12-07T17:02:16;11.73;;;7.03;;
24761;SDS011;12865;51.934;10.330;2022-12-07T17:05:02;9.13;;;5.63;;
24761;SDS011;12865;51.934;10.330;2022-12-07T17:07:48;11.43;;;5.40;;
24761;SDS011;12865;51.934;10.330;2022-12-07T17:10:34;8.18;;;5.75;;
24761;SDS011;12865;51.934;10.330;2022-12-07T17:13:21;8.52;;;5.72;;
24761;SDS011;12865;51.934;10.330;2022-12-07T17:16:26;11.23;;;5.78;;
24761;SDS011;12865;51.934;10.330;2022-12-07T17:19:13;9.60;;;6.40;;
24761;SDS011;12865;51.934;10.330;2022-12-07T17:22:01;13.75;;;7.15;;
24761;SDS011;12865;51.934;10.330;2022-12-07T17:24:46;14.02;;;6.85;;
24761;SDS011;12865;51.934;10.330;2022-12-07T17:27:32;13.77;;;6.38;;
24761;SDS011;12865;51.934;10.330;2022-12-07T17:30:18;12.95;;;6.30;;
24761;SDS011;12865;51.934;10.330;2022-12-07T17:33:04;11.52;;;6.95;;
24761;SDS011;12865;51.934;10.330;2022-12-07T17:35:49;10.25;;;6.05;;
24761;SDS011;12865;51.934;10.330;2022-12-07T17:38:35;9.50;;;6.63;;
24761;SDS011;12865;51.934;10.330;2022-12-07T17:41:22;11.88;;;6.25;;
24761;SDS011;12865;51.934;10.330;2022-12-07T17:44:28;8.85;;;6.18;;
24761;SDS011;12865;51.934;10.330;2022-12-07T17:47:14;9.52;;;6.43;;
24761;SDS011;12865;51.934;10.330;2022-12-07T17:50:03;14.05;;;7.28;;
24761;SDS011;12865;51.934;10.330;2022-12-07T17:52:50;12.98;;;6.90;;
24761;SDS011;12865;51.934;10.330;2022-12-07T17:55:54;15.00;;;7.40;;
24761;SDS011;12865;51.934;10.330;2022-12-07T17:58:40;10.40;;;6.22;;
24761;SDS011;12865;51.934;10.330;2022-12-07T18:01:26;11.48;;;7.35;;
24761;SDS011;12865;51.934;10.330;2022-12-07T18:04:12;12.25;;;6.85;;
24761;SDS011;12865;51.934;10.330;2022-12-07T18:06:57;14.27;;;6.88;;
24761;SDS011;12865;51.934;10.330;2022-12-07T18:09:43;8.77;;;5.97;;
24761;SDS011;12865;51.934;10.330;2022-12-07T18:12:29;14.27;;;6.50;;
24761;SDS011;12865;51.934;10.330;2022-12-07T18:17:42;11.75;;;6.32;;
24761;SDS011;12865;51.934;10.330;2022-12-07T18:20:28;12.13;;;6.72;;
24761;SDS011;12865;51.934;10.330;2022-12-07T18:23:13;12.13;;;6.65;;
24761;SDS011;12865;51.934;10.330;2022-12-07T18:25:59;10.13;;;6.95;;
24761;SDS011;12865;51.934;10.330;2022-12-07T18:28:45;16.00;;;7.00;;
24761;SDS011;12865;51.934;10.330;2022-12-07T18:31:32;12.65;;;6.45;;
24761;SDS011;12865;51.934;10.330;2022-12-07T18:34:18;11.38;;;7.57;;
24761;SDS011;12865;51.934;10.330;2022-12-07T18:37:04;13.43;;;6.45;;
24761;SDS011;12865;51.934;10.330;2022-12-07T18:39:50;11.48;;;6.97;;